Terminal Aerodrome Forecast
Issued by NWS Pittsburgh, PA

Current Version | Previous Version | Text Only | Print | Product List | Glossary Off
Versions: 1 2 3 4 5 6 7 8 9 10 11 12 13 14 15 16 17 18 19 20 21 22 23 24 25 26 27 28 29 30 31

000
FTUS41 KPBZ 180200 AAA
TAFPIT
TAF AMD
KPIT 180232Z 1803/1906 25010KT P6SM BKN050
     FM180700 26010G20KT P6SM VCSH BKN020
     FM181400 27012G22KT P6SM VCSH BKN020
     FM190000 30012KT 6SM -SHRA OVC020=

USA.gov is the U.S. government's official web portal to all federal, state and local government web resources and services.